AP586 Weather Reports


Display with metric or nautical units.
time (UTC)temp
F
wind
direction
speed
MPH
gust
MPH
rain 1hr
in
rain 24hr
in
rain mn
in
humidity
%
barometer
mb
20210921064535 51 140 0.0 0.0 0.00 0.00 0.00 93 1027.2
20210921063058 52 140 0.0 0.0 0.00 0.00 0.00 93 1027.4
20210921061544 52 140 0.0 0.0 0.00 0.00 0.00 93 1027.4
20210921060043 53 140 0.0 1.0 0.00 0.00 0.00 93 1027.5
20210921054519 53 140 0.0 2.0 0.00 0.00 0.00 93 1027.5
20210921053046 53 140 0.0 1.0 0.00 0.00 0.00 93 1027.6
20210921051552 53 140 0.0 0.0 0.00 0.00 0.00 92 1027.6
20210921050030 54 140 0.0 0.0 0.00 0.00 0.00 92 1027.6
20210921044512 54 140 0.0 0.0 0.00 0.00 0.00 92 1027.6
20210921043013 54 140 0.0 1.0 0.00 0.00 0.00 92 1027.6
20210921041513 55 140 0.0 1.0 0.00 0.00 0.00 90 1027.5
20210921040006 55 140 0.0 0.0 0.00 0.00 0.00 90 1027.4
20210921034505 56 140 0.0 1.0 0.00 0.00 0.00 91 1027.4
20210921033004 56 140 0.0 1.0 0.00 0.00 0.00 90 1027.5
20210921031503 56 140 0.0 2.0 0.00 0.00 0.00 90 1027.4
20210921030003 56 140 0.0 2.0 0.00 0.00 0.00 90 1027.3
20210921024512 56 140 0.0 1.0 0.00 0.00 0.00 89 1027.4
20210921023010 57 140 0.0 1.0 0.00 0.00 0.00 88 1027.5
20210921021501 57 140 0.0 1.0 0.00 0.00 0.00 87 1027.3
20210921020245 58 140 0.0 1.0 0.00 0.00 0.00 86 1027.2
20210921014630 58 140 0.0 1.0 0.00 0.00 0.00 86 1027.1
20210921013142 59 140 0.0 2.0 0.00 0.00 0.00 85 1027.2
20210921011710 59 139 1.0 2.0 0.00 0.00 0.00 84 1027.1
20210921010154 60 139 0.0 4.0 0.00 0.00 0.00 83 1027.2
20210921004621 60 157 0.0 3.0 0.00 0.00 0.00 82 1027.2
20210921003133 61 71 0.0 1.0 0.00 0.00 0.00 79 1027.1
20210921001634 61 71 0.0 2.0 0.00 0.00 0.00 76 1027.0
20210921000127 62 71 0.0 3.0 0.00 0.00 0.00 75 1027.0
20210920234710 63 71 0.0 4.0 0.00 0.00 0.00 72 1026.9
20210920233113 64 134 1.0 4.0 0.00 0.00 0.00 69 1026.7
20210920231638 64 98 1.0 7.0 0.00 0.00 0.00 66 1026.6
20210920230057 65 89 1.0 6.0 0.00 0.00 0.00 61 1026.5
20210920224809 65 81 4.0 10.0 0.00 0.00 0.00 57 1026.5
20210920223138 66 75 2.0 8.0 0.00 0.00 0.00 57 1026.4
20210920221839 67 101 2.0 9.0 0.00 0.00 0.00 57 1026.1
20210920220135 67 103 2.0 7.0 0.00 0.00 0.00 57 1026.0
20210920214615 68 92 2.0 8.0 0.00 0.00 0.00 58 1025.9
20210920213118 68 70 2.0 6.0 0.00 0.00 0.00 59 1025.9
20210920211546 69 57 2.0 8.0 0.00 0.00 0.00 59 1025.9
20210920210100 70 60 3.0 11.0 0.00 0.00 0.00 57 1025.9
20210920204613 71 70 2.0 10.0 0.00 0.00 0.00 54 1025.8
20210920203117 74 61 3.0 9.0 0.00 0.00 0.00 49 1025.8
20210920201544 75 72 3.0 11.0 0.00 0.00 0.00 47 1025.8
20210920200124 76 54 3.0 10.0 0.00 0.00 0.00 45 1025.8
20210920194608 77 88 2.0 8.0 0.00 0.00 0.00 42 1025.9
20210920193108 76 51 3.0 9.0 0.00 0.00 0.00 44 1025.9
20210920191551 76 94 3.0 11.0 0.00 0.00 0.00 46 1026.0
20210920190128 77 78 5.0 10.0 0.00 0.00 0.00 45 1026.0
20210920184621 77 71 4.0 11.0 0.00 0.00 0.00 46 1026.0
20210920183102 78 22 2.0 7.0 0.00 0.00 0.00 49 1025.9
20210920181557 78 5 3.0 8.0 0.00 0.00 0.00 51 1026.0
20210920180037 76 19 1.0 4.0 0.00 0.00 0.00 52 1026.0
20210920174613 77 40 2.0 6.0 0.00 0.00 0.00 53 1026.0
20210920173046 77 93 1.0 7.0 0.00 0.00 0.00 52 1026.1
20210920171552 78 53 0.0 5.0 0.00 0.00 0.00 48 1026.2
20210920170042 78 87 2.0 5.0 0.00 0.00 0.00 48 1026.3
20210920164534 77 66 2.0 5.0 0.00 0.00 0.00 50 1026.5
20210920163033 76 50 2.0 6.0 0.00 0.00 0.00 51 1026.5
20210920161614 74 34 3.0 6.0 0.00 0.00 0.00 54 1026.7
20210920160035 74 33 0.0 5.0 0.00 0.00 0.00 52 1026.7
20210920154516 73 159 1.0 8.0 0.00 0.00 0.00 53 1026.5
20210920153014 73 76 2.0 9.0 0.00 0.00 0.00 53 1026.7
20210920151538 72 36 3.0 9.0 0.00 0.00 0.00 54 1026.7
20210920150008 72 86 2.0 7.0 0.00 0.00 0.00 55 1026.8
20210920144509 72 113 2.0 7.0 0.00 0.00 0.00 55 1026.8
20210920143035 72 86 1.0 7.0 0.00 0.00 0.00 55 1026.6
20210920141504 72 89 2.0 6.0 0.00 0.00 0.00 55 1026.5
20210920140005 71 92 1.0 6.0 0.00 0.00 0.00 58 1026.5
20210920134704 70 82 0.0 3.0 0.00 0.00 0.00 65 1026.3
20210920133203 68 86 1.0 4.0 0.00 0.00 0.00 67 1026.2
20210920131623 67 73 1.0 4.0 0.00 0.00 0.00 67 1026.0
20210920130106 66 89 0.0 4.0 0.00 0.00 0.00 78 1025.9
20210920124624 63 85 0.0 1.0 0.00 0.00 0.00 89 1025.9
20210920123114 60 92 0.0 3.0 0.00 0.00 0.00 96 1025.8
20210920121606 58 107 0.0 3.0 0.00 0.00 0.00 98 1025.5
20210920120104 55 166 0.0 2.0 0.00 0.00 0.00 97 1025.4
20210920114556 53 166 1.0 3.0 0.00 0.00 0.00 97 1025.3
20210920113148 52 166 0.0 2.0 0.00 0.00 0.00 97 1025.1
20210920111524 51 166 0.0 0.0 0.00 0.00 0.00 96 1024.8
20210920110024 51 166 0.0 1.0 0.00 0.00 0.00 96 1024.6
20210920104529 51 166 0.0 2.0 0.00 0.00 0.00 95 1024.3
20210920103041 51 166 0.0 0.0 0.00 0.00 0.00 95 1024.1
20210920101517 51 166 0.0 0.0 0.00 0.00 0.00 95 1024.0
20210920100048 51 166 0.0 1.0 0.00 0.00 0.00 96 1023.8
20210920094510 51 166 0.0 2.0 0.00 0.00 0.00 95 1023.6
20210920093008 51 166 0.0 0.0 0.00 0.00 0.00 95 1023.4
20210920091505 51 166 0.0 0.0 0.00 0.00 0.00 95 1023.3
20210920090005 51 166 0.0 0.0 0.00 0.00 0.00 94 1023.2
20210920084512 51 166 0.0 0.0 0.00 0.00 0.00 94 1023.2
20210920083229 52 166 0.0 0.0 0.00 0.00 0.00 95 1023.1
20210920081735 51 166 0.0 0.0 0.00 0.00 0.00 94 1022.9
20210920080142 52 166 0.0 0.0 0.00 0.06 0.00 94 1022.8
20210920074622 52 166 0.0 0.0 0.00 0.06 0.00 94 1022.8
20210920073144 52 166 0.0 0.0 0.00 0.06 0.00 93 1022.7
20210920071638 52 166 0.0 0.0 0.00 0.06 0.00 93 1022.5
20210920070155 53 166 0.0 0.0 0.00 0.09 0.00 93 1022.5